createdAt,value
2023-04-04T00:00:21.073Z,9.745394
2023-04-04T00:01:21.093Z,9.745572
2023-04-04T00:02:21.113Z,9.745324
2023-04-04T00:03:21.168Z,9.746182
2023-04-04T00:04:21.095Z,9.745572
2023-04-04T00:05:21.051Z,9.745399
2023-04-04T00:06:21.066Z,9.745547
2023-04-04T00:07:21.022Z,9.745757
2023-04-04T00:08:21.089Z,9.745606
2023-04-04T00:09:21.006Z,9.745225
2023-04-04T00:10:21.000Z,9.745625
2023-04-04T00:11:21.015Z,9.745567
2023-04-04T00:12:21.311Z,9.745881
2023-04-04T00:13:20.975Z,9.745369
2023-04-04T00:14:20.966Z,9.745218
2023-04-04T00:15:20.958Z,9.745463
2023-04-04T00:16:21.026Z,9.745270
2023-04-04T00:17:20.940Z,9.745277
2023-04-04T00:18:20.932Z,9.746253
2023-04-04T00:19:20.922Z,9.745915
2023-04-04T00:20:20.922Z,9.745872
2023-04-04T00:21:20.939Z,9.745234
2023-04-04T00:22:20.912Z,9.745743
2023-04-04T00:23:20.898Z,9.745735
2023-04-04T00:24:20.889Z,9.745796
2023-04-04T00:25:20.877Z,9.745588
2023-04-04T00:26:20.907Z,9.745812
2023-04-04T00:27:20.874Z,9.745717
2023-04-04T00:28:20.854Z,9.745443
2023-04-04T00:29:20.856Z,9.745554
2023-04-04T00:30:20.876Z,9.745689
2023-04-04T00:31:20.962Z,9.745687
2023-04-04T00:32:20.901Z,9.745796
2023-04-04T00:33:20.845Z,9.745667
2023-04-04T00:34:20.805Z,9.745684
2023-04-04T00:35:20.805Z,9.745784
2023-04-04T00:36:20.818Z,9.745938
2023-04-04T00:37:20.789Z,9.746038
2023-04-04T00:38:20.774Z,9.745893
2023-04-04T00:39:20.779Z,9.745919
2023-04-04T00:40:20.758Z,9.745919
2023-04-04T00:41:20.780Z,9.745919
2023-04-04T00:42:20.753Z,9.746060
2023-04-04T00:43:20.746Z,9.745952
2023-04-04T00:44:20.748Z,9.745522
2023-04-04T00:45:20.721Z,9.745505
2023-04-04T00:46:20.748Z,9.745505
2023-04-04T00:47:20.704Z,9.745505
2023-04-04T00:48:20.705Z,9.745505
2023-04-04T00:49:20.721Z,9.745505
2023-04-04T00:50:20.702Z,9.745505
2023-04-04T00:51:20.720Z,9.746173
2023-04-04T00:52:20.678Z,9.746399
2023-04-04T00:53:20.662Z,9.746278
2023-04-04T00:54:20.661Z,9.745784
2023-04-04T00:55:20.650Z,9.746044
2023-04-04T00:56:20.684Z,9.746079
2023-04-04T00:57:20.639Z,9.745992
2023-04-04T00:58:20.635Z,9.746107
2023-04-04T00:59:20.674Z,9.745977
2023-04-04T01:00:20.629Z,9.745918
2023-04-04T01:01:20.670Z,9.745677
2023-04-04T01:02:20.606Z,9.745193
2023-04-04T01:03:20.598Z,9.745221
2023-04-04T01:04:20.677Z,9.745680
2023-04-04T01:05:20.586Z,9.745619
2023-04-04T01:06:20.606Z,9.745614
2023-04-04T01:07:20.569Z,9.745821
2023-04-04T01:08:20.564Z,9.745394
2023-04-04T01:09:20.551Z,9.745501
2023-04-04T01:10:20.542Z,9.745976
2023-04-04T01:11:20.570Z,9.745379
2023-04-04T01:12:20.525Z,9.745061
2023-04-04T01:13:20.519Z,9.744868
2023-04-04T01:14:20.510Z,9.744780
2023-04-04T01:15:20.516Z,9.745183
2023-04-04T01:16:20.532Z,9.746033
2023-04-04T01:17:20.482Z,9.745835
2023-04-04T01:18:20.476Z,9.745302
2023-04-04T01:19:20.470Z,9.745493
2023-04-04T01:20:20.466Z,9.745854
2023-04-04T01:21:20.475Z,9.745696
2023-04-04T01:22:20.441Z,9.745979
2023-04-04T01:23:20.434Z,9.745405
2023-04-04T01:24:20.431Z,9.745515
2023-04-04T01:25:20.431Z,9.745346
2023-04-04T01:26:20.453Z,9.745352
2023-04-04T01:27:20.411Z,9.745349
2023-04-04T01:28:20.390Z,9.745043
2023-04-04T01:29:20.385Z,9.744358
2023-04-04T01:30:20.376Z,9.744358
2023-04-04T01:31:20.415Z,9.744358
2023-04-04T01:32:20.381Z,9.744358
2023-04-04T01:33:20.363Z,9.744358
2023-04-04T01:34:20.362Z,9.744358
2023-04-04T01:35:20.350Z,9.745195
2023-04-04T01:36:20.374Z,9.745195
2023-04-04T01:37:20.322Z,9.745381
2023-04-04T01:38:20.320Z,9.745254
2023-04-04T01:39:20.313Z,9.744911
2023-04-04T01:40:20.310Z,9.744912
2023-04-04T01:41:20.382Z,9.745150
2023-04-04T01:42:20.292Z,9.745097
2023-04-04T01:43:20.281Z,9.745612
2023-04-04T01:44:20.276Z,9.745283
2023-04-04T01:45:20.278Z,9.745283
2023-04-04T01:46:20.324Z,9.745283
2023-04-04T01:47:20.282Z,9.745283
2023-04-04T01:48:20.252Z,9.745283
2023-04-04T01:49:20.246Z,9.745283
2023-04-04T01:50:20.246Z,9.745283
2023-04-04T01:51:20.230Z,9.745283
2023-04-04T01:52:20.239Z,9.745283
2023-04-04T01:53:20.213Z,9.745283
2023-04-04T01:54:20.214Z,9.745283
2023-04-04T01:55:20.198Z,9.745283
2023-04-04T01:56:20.198Z,9.745283
2023-04-04T01:57:20.208Z,9.745283
2023-04-04T01:58:20.185Z,9.745283
2023-04-04T01:59:20.206Z,9.745283
2023-04-04T02:00:20.161Z,9.745283
2023-04-04T02:01:20.239Z,9.745283
2023-04-04T02:02:20.165Z,9.745283
2023-04-04T02:03:20.150Z,9.745283
2023-04-04T02:04:20.158Z,9.745283
2023-04-04T02:05:20.130Z,9.745283
2023-04-04T02:06:20.114Z,9.745283
2023-04-04T02:07:20.137Z,9.745283
2023-04-04T02:08:20.112Z,9.745283
2023-04-04T02:09:20.098Z,9.745283
2023-04-04T02:10:20.100Z,9.745283
2023-04-04T02:11:20.089Z,9.745283
2023-04-04T02:12:20.117Z,9.745283
2023-04-04T02:13:20.064Z,9.745283
2023-04-04T02:14:20.063Z,9.745095
2023-04-04T02:15:20.049Z,9.745472
2023-04-04T02:16:20.158Z,9.745401
2023-04-04T02:17:20.055Z,9.744778
2023-04-04T02:18:20.036Z,9.744948
2023-04-04T02:19:20.025Z,9.745899
2023-04-04T02:20:20.026Z,9.745438
2023-04-04T02:21:20.014Z,9.745510
2023-04-04T02:22:20.038Z,9.745587
2023-04-04T02:23:19.987Z,9.745432
2023-04-04T02:24:19.994Z,9.745052
2023-04-04T02:25:19.975Z,9.745653
2023-04-04T02:26:19.973Z,9.745630
2023-04-04T02:27:19.988Z,9.745567
2023-04-04T02:28:19.950Z,9.745758
2023-04-04T02:29:19.946Z,9.745184
2023-04-04T02:30:19.938Z,9.745346
2023-04-04T02:31:19.959Z,9.745686
2023-04-04T02:32:19.948Z,9.745649
2023-04-04T02:33:19.911Z,9.745669
2023-04-04T02:34:19.903Z,9.745709
2023-04-04T02:35:19.897Z,9.745854
2023-04-04T02:36:19.949Z,9.745708
2023-04-04T02:37:19.913Z,9.745603
2023-04-04T02:38:19.866Z,9.745444
2023-04-04T02:39:19.864Z,9.745282
2023-04-04T02:40:19.875Z,9.745542
2023-04-04T02:41:19.855Z,9.745807
2023-04-04T02:42:19.871Z,9.745465
2023-04-04T02:43:19.839Z,9.745711
2023-04-04T02:44:19.828Z,9.745688
2023-04-04T02:45:19.822Z,9.745831
2023-04-04T02:46:21.937Z,9.745880
2023-04-04T02:47:20.833Z,9.744991
2023-04-04T02:48:19.803Z,9.745473
2023-04-04T02:49:19.798Z,9.745625
2023-04-04T02:50:19.795Z,9.745606
2023-04-04T02:51:19.783Z,9.745448
2023-04-04T02:52:19.804Z,9.745523
2023-04-04T02:53:19.766Z,9.745521
2023-04-04T02:54:19.759Z,9.745392
2023-04-04T02:55:19.751Z,9.745401
2023-04-04T02:56:19.760Z,9.745342
2023-04-04T02:57:19.764Z,9.745475
2023-04-04T02:58:19.733Z,9.745371
2023-04-04T02:59:19.765Z,9.745510
2023-04-04T03:00:19.733Z,9.745339
2023-04-04T03:01:19.738Z,9.745499
2023-04-04T03:02:19.885Z,9.745461
2023-04-04T03:03:19.959Z,9.745582
2023-04-04T03:04:19.695Z,9.745508
2023-04-04T03:05:19.682Z,9.745499
2023-04-04T03:06:19.671Z,9.745592
2023-04-04T03:07:19.693Z,9.745378
2023-04-04T03:08:19.666Z,9.745593
2023-04-04T03:09:19.670Z,9.745717
2023-04-04T03:10:19.642Z,9.745345
2023-04-04T03:11:19.635Z,9.745270
2023-04-04T03:12:19.654Z,9.745345
2023-04-04T03:13:19.624Z,9.745521
2023-04-04T03:14:19.611Z,9.745753
2023-04-04T03:15:19.611Z,9.745443
2023-04-04T03:16:19.667Z,9.744843
2023-04-04T03:17:19.604Z,9.744932
2023-04-04T03:18:19.613Z,9.745666
2023-04-04T03:19:19.575Z,9.745989
2023-04-04T03:20:19.574Z,9.745806
2023-04-04T03:21:19.557Z,9.745543
2023-04-04T03:22:19.551Z,9.743947
2023-04-04T03:23:19.573Z,9.744873
2023-04-04T03:24:19.562Z,9.746339
2023-04-04T03:25:19.535Z,9.746391
2023-04-04T03:26:19.530Z,9.745624
2023-04-04T03:27:19.526Z,9.745321
2023-04-04T03:28:19.545Z,9.744989
2023-04-04T03:29:19.497Z,9.745485
2023-04-04T03:30:19.513Z,9.746216
2023-04-04T03:31:19.481Z,9.745731
2023-04-04T03:32:19.469Z,9.745577
2023-04-04T03:33:19.506Z,9.745576
2023-04-04T03:34:19.474Z,9.745772
2023-04-04T03:35:19.469Z,9.745491
2023-04-04T03:36:19.454Z,9.745231
2023-04-04T03:37:19.437Z,9.745638
2023-04-04T03:38:19.460Z,9.745523
2023-04-04T03:39:19.436Z,9.745469
2023-04-04T03:40:19.424Z,9.745578
2023-04-04T03:41:19.423Z,9.745363
2023-04-04T03:42:19.415Z,9.745453
2023-04-04T03:43:19.429Z,9.745633
2023-04-04T03:44:19.389Z,9.745644
2023-04-04T03:45:19.385Z,9.745625
2023-04-04T03:46:19.470Z,9.745687
2023-04-04T03:47:19.420Z,9.745495
2023-04-04T03:48:19.376Z,9.745684
2023-04-04T03:49:19.357Z,9.745232
2023-04-04T03:50:19.343Z,9.745693
2023-04-04T03:51:19.329Z,9.745563
2023-04-04T03:52:19.322Z,9.745794
2023-04-04T03:53:19.343Z,9.745546
2023-04-04T03:54:19.309Z,9.745130
2023-04-04T03:55:19.306Z,9.745807
2023-04-04T03:56:19.294Z,9.745774
2023-04-04T03:57:19.290Z,9.745606
2023-04-04T03:58:19.310Z,9.745250
2023-04-04T03:59:19.296Z,9.745242
2023-04-04T04:00:19.270Z,9.745520
2023-04-04T04:01:19.258Z,9.745373
2023-04-04T04:02:19.277Z,9.745308
2023-04-04T04:03:19.342Z,9.745340
2023-04-04T04:04:19.290Z,9.745366
2023-04-04T04:05:19.238Z,9.745608
2023-04-04T04:06:19.221Z,9.745774
2023-04-04T04:07:19.211Z,9.745510
2023-04-04T04:08:19.232Z,9.745768
2023-04-04T04:09:19.220Z,9.745717
2023-04-04T04:10:19.202Z,9.745614
2023-04-04T04:11:19.212Z,9.745438
2023-04-04T04:12:19.189Z,9.745541
2023-04-04T04:13:19.194Z,9.745497
2023-04-04T04:14:19.156Z,9.745540
2023-04-04T04:15:19.158Z,9.745620
2023-04-04T04:16:19.197Z,9.745689
2023-04-04T04:17:19.143Z,9.745348
2023-04-04T04:18:19.167Z,9.745532
2023-04-04T04:19:19.136Z,9.745401
2023-04-04T04:20:19.124Z,9.745463
2023-04-04T04:21:19.114Z,9.745409
2023-04-04T04:22:19.096Z,9.745570
2023-04-04T04:23:19.122Z,9.745453
2023-04-04T04:24:19.085Z,9.745726
2023-04-04T04:25:19.078Z,9.745279
2023-04-04T04:26:19.082Z,9.745841
2023-04-04T04:27:19.083Z,9.745495
2023-04-04T04:28:19.090Z,9.745058
2023-04-04T04:29:19.059Z,9.745488
2023-04-04T04:30:19.053Z,9.745126
2023-04-04T04:31:19.090Z,9.745066
2023-04-04T04:32:19.044Z,9.745238
2023-04-04T04:33:19.043Z,9.745318
2023-04-04T04:34:19.030Z,9.745606
2023-04-04T04:35:19.004Z,9.745569
2023-04-04T04:36:19.045Z,9.745343
2023-04-04T04:37:18.996Z,9.745419
2023-04-04T04:38:19.003Z,9.745772
2023-04-04T04:39:18.975Z,9.745647
2023-04-04T04:40:18.973Z,9.745360
2023-04-04T04:41:18.963Z,9.745146
2023-04-04T04:42:18.959Z,9.744936
2023-04-04T04:43:18.978Z,9.744929
2023-04-04T04:44:18.940Z,9.745344
2023-04-04T04:45:18.928Z,9.745126
2023-04-04T04:46:18.962Z,9.745117
2023-04-04T04:47:18.913Z,9.745317
2023-04-04T04:48:18.947Z,9.745290
2023-04-04T04:49:18.955Z,9.745488
2023-04-04T04:50:18.893Z,9.745449
2023-04-04T04:51:18.886Z,9.745494
2023-04-04T04:52:18.874Z,9.745196
2023-04-04T04:53:18.890Z,9.745357
2023-04-04T04:54:18.864Z,9.745317
2023-04-04T04:55:18.856Z,9.745539
2023-04-04T04:56:18.843Z,9.745093
2023-04-04T04:57:18.837Z,9.745181
2023-04-04T04:58:18.855Z,9.745182
2023-04-04T04:59:18.917Z,9.744797
2023-04-04T05:00:18.821Z,9.744995
2023-04-04T05:01:18.832Z,9.745225
2023-04-04T05:02:18.827Z,9.745007
2023-04-04T05:03:18.831Z,9.744812
2023-04-04T05:04:18.791Z,9.745035
2023-04-04T05:05:18.788Z,9.745303
2023-04-04T05:06:18.764Z,9.745131
2023-04-04T05:07:18.762Z,9.744852
2023-04-04T05:08:18.783Z,9.744852
2023-04-04T05:09:18.746Z,9.744852
2023-04-04T05:10:18.735Z,9.745049
2023-04-04T05:11:18.728Z,9.744948
2023-04-04T05:12:18.716Z,9.745632
2023-04-04T05:13:18.735Z,9.745770
2023-04-04T05:14:18.704Z,9.745429
2023-04-04T05:15:18.705Z,9.745268
2023-04-04T05:16:18.714Z,9.745125
2023-04-04T05:17:18.701Z,9.744719
2023-04-04T05:18:18.696Z,9.745325
2023-04-04T05:19:18.719Z,9.745292
2023-04-04T05:20:18.654Z,9.744409
2023-04-04T05:21:18.645Z,9.744409
2023-04-04T05:22:18.638Z,9.744923
2023-04-04T05:23:18.647Z,9.744923
2023-04-04T05:24:18.624Z,9.745440
2023-04-04T05:25:18.623Z,9.745097
2023-04-04T05:26:19.617Z,9.745334
2023-04-04T05:27:18.599Z,9.745533
2023-04-04T05:28:18.659Z,9.745690
2023-04-04T05:29:18.612Z,9.745716
2023-04-04T05:30:18.574Z,9.745571
2023-04-04T05:31:18.729Z,9.745851
2023-04-04T05:32:18.559Z,9.745396
2023-04-04T05:33:18.573Z,9.745450
2023-04-04T05:34:18.542Z,9.745624
2023-04-04T05:35:18.593Z,9.745171
2023-04-04T05:36:18.572Z,9.745234
2023-04-04T05:37:18.522Z,9.745543
2023-04-04T05:38:18.539Z,9.745811
2023-04-04T05:39:19.516Z,9.745706
2023-04-04T05:40:18.496Z,9.745612
2023-04-04T05:41:18.486Z,9.745770
2023-04-04T05:42:18.483Z,9.745611
2023-04-04T05:43:18.499Z,9.745933
2023-04-04T05:44:18.465Z,9.745745
2023-04-04T05:45:18.452Z,9.745861
2023-04-04T05:46:18.482Z,9.745466
2023-04-04T05:47:18.438Z,9.745419
2023-04-04T05:48:18.466Z,9.745330
2023-04-04T05:49:18.420Z,9.745597
2023-04-04T05:50:18.415Z,9.745353
2023-04-04T05:51:19.418Z,9.744859
2023-04-04T05:52:18.396Z,9.745342
2023-04-04T05:53:18.417Z,9.745559
2023-04-04T05:54:18.389Z,9.745420
2023-04-04T05:55:18.375Z,9.745402
2023-04-04T05:56:18.379Z,9.745175
2023-04-04T05:57:18.360Z,9.745331
2023-04-04T05:58:18.361Z,9.745385
2023-04-04T05:59:18.438Z,9.745168
2023-04-04T06:00:18.357Z,9.745235
2023-04-04T06:01:18.330Z,9.745180
2023-04-04T06:02:18.352Z,9.745082
2023-04-04T06:03:21.180Z,9.744903
2023-04-04T06:04:19.333Z,9.745239
2023-04-04T06:05:18.308Z,9.745251
2023-04-04T06:06:18.335Z,9.745372
2023-04-04T06:07:18.286Z,9.745437
2023-04-04T06:08:18.282Z,9.745311
2023-04-04T06:09:18.297Z,9.745431
2023-04-04T06:10:18.270Z,9.745375
2023-04-04T06:11:18.254Z,9.745396
2023-04-04T06:12:18.246Z,9.745159
2023-04-04T06:13:18.242Z,9.745563
2023-04-04T06:14:18.253Z,9.745669
2023-04-04T06:15:18.221Z,9.745596
2023-04-04T06:16:18.252Z,9.745547
2023-04-04T06:17:18.205Z,9.745488
2023-04-04T06:18:18.199Z,9.745460
2023-04-04T06:19:20.123Z,9.745486
2023-04-04T06:20:18.184Z,9.745335
2023-04-04T06:21:18.175Z,9.745626
2023-04-04T06:22:18.165Z,9.745510
2023-04-04T06:23:18.154Z,9.745504
2023-04-04T06:24:18.171Z,9.745604
2023-04-04T06:25:18.139Z,9.745512
2023-04-04T06:26:18.126Z,9.745572
2023-04-04T06:27:18.123Z,9.745564
2023-04-04T06:28:18.160Z,9.745531
2023-04-04T06:29:18.141Z,9.745524
2023-04-04T06:30:18.117Z,9.745492
2023-04-04T06:31:18.104Z,9.745635
2023-04-04T06:32:18.122Z,9.745523
2023-04-04T06:33:18.080Z,9.745540
2023-04-04T06:34:18.093Z,9.745500
2023-04-04T06:35:19.999Z,9.745523
2023-04-04T06:36:19.056Z,9.745539
2023-04-04T06:37:18.037Z,9.745535
2023-04-04T06:38:18.031Z,9.745602
2023-04-04T06:39:18.048Z,9.745595
2023-04-04T06:40:18.019Z,9.745680
2023-04-04T06:41:18.011Z,9.745522
2023-04-04T06:42:18.002Z,9.745587
2023-04-04T06:43:18.000Z,9.745538
2023-04-04T06:44:18.016Z,9.745528
2023-04-04T06:45:17.997Z,9.745708
2023-04-04T06:46:17.993Z,9.745603
2023-04-04T06:47:17.966Z,9.745592
2023-04-04T06:48:17.966Z,9.745589
2023-04-04T06:49:17.981Z,9.745540
2023-04-04T06:50:17.943Z,9.745457
2023-04-04T06:51:17.932Z,9.745587
2023-04-04T06:52:17.917Z,9.745542
2023-04-04T06:53:17.921Z,9.745193
2023-04-04T06:54:17.932Z,9.745528
2023-04-04T06:55:17.897Z,9.745644
2023-04-04T06:56:17.885Z,9.745446
2023-04-04T06:57:17.881Z,9.745548
2023-04-04T06:58:17.874Z,9.745352
2023-04-04T06:59:17.906Z,9.745463
2023-04-04T07:00:17.855Z,9.745453
2023-04-04T07:01:17.883Z,9.745389
2023-04-04T07:02:17.866Z,9.745366
2023-04-04T07:03:17.870Z,9.745524
2023-04-04T07:04:17.852Z,9.745305
2023-04-04T07:05:17.882Z,9.745647
2023-04-04T07:06:17.809Z,9.745542
2023-04-04T07:07:17.807Z,9.745731
2023-04-04T07:08:17.844Z,9.745568
2023-04-04T07:09:28.011Z,9.745112
2023-04-04T07:10:19.782Z,9.745891
2023-04-04T07:11:17.774Z,9.745592
2023-04-04T07:12:17.787Z,9.745214
2023-04-04T07:13:17.765Z,9.744786
2023-04-04T07:14:17.784Z,9.745663
2023-04-04T07:15:17.758Z,9.745501
2023-04-04T07:16:17.770Z,9.745953
2023-04-04T07:17:24.599Z,9.746790
2023-04-04T07:18:19.717Z,9.745824
2023-04-04T07:19:17.739Z,9.745823
2023-04-04T07:20:17.714Z,9.746119
2023-04-04T07:21:17.699Z,9.745807
2023-04-04T07:22:17.702Z,9.745898
2023-04-04T07:23:17.689Z,9.745728
2023-04-04T07:24:17.700Z,9.745627
2023-04-04T07:25:17.672Z,9.745544
2023-04-04T07:26:17.662Z,9.745494
2023-04-04T07:27:17.661Z,9.745388
2023-04-04T07:28:17.663Z,9.745115
2023-04-04T07:29:17.695Z,9.745213
2023-04-04T07:30:17.631Z,9.745261
2023-04-04T07:31:17.632Z,9.745521
2023-04-04T07:32:17.625Z,9.745700
2023-04-04T07:33:17.610Z,9.745515
2023-04-04T07:34:17.633Z,9.745555
2023-04-04T07:35:17.601Z,9.745482
2023-04-04T07:36:17.633Z,9.745589
2023-04-04T07:37:17.594Z,9.745530
2023-04-04T07:38:17.590Z,9.745747
2023-04-04T07:39:17.587Z,9.745971
2023-04-04T07:40:17.555Z,9.745496
2023-04-04T07:41:17.556Z,9.745298
2023-04-04T07:42:17.541Z,9.745576
2023-04-04T07:43:17.556Z,9.745365
2023-04-04T07:44:17.551Z,9.745451
2023-04-04T07:45:17.520Z,9.745724
2023-04-04T07:46:17.587Z,9.745520
2023-04-04T07:47:17.504Z,9.745561
2023-04-04T07:48:17.507Z,9.745474
2023-04-04T07:49:17.513Z,9.745205
2023-04-04T07:50:17.486Z,9.745172
2023-04-04T07:51:17.470Z,9.745337
2023-04-04T07:52:17.470Z,9.745611
2023-04-04T07:53:17.459Z,9.745599
2023-04-04T07:54:17.466Z,9.745494
2023-04-04T07:55:17.436Z,9.745504
2023-04-04T07:56:17.440Z,9.745399
2023-04-04T07:57:17.417Z,9.745583
2023-04-04T07:58:17.421Z,9.745392
2023-04-04T07:59:17.444Z,9.745461
2023-04-04T08:00:17.397Z,9.745487
2023-04-04T08:01:17.395Z,9.745426
2023-04-04T08:02:17.444Z,9.745209
2023-04-04T08:03:17.557Z,9.745028
2023-04-04T08:04:17.452Z,9.745053
2023-04-04T08:05:17.364Z,9.745526
2023-04-04T08:06:17.350Z,9.745678
2023-04-04T08:07:17.352Z,9.745737
2023-04-04T08:08:17.358Z,9.745839
2023-04-04T08:09:17.350Z,9.745809
2023-04-04T08:10:17.351Z,9.745738
2023-04-04T08:11:17.313Z,9.745618
2023-04-04T08:12:17.308Z,9.745515
2023-04-04T08:13:17.303Z,9.745601
2023-04-04T08:14:17.313Z,9.745694
2023-04-04T08:15:17.301Z,9.745614
2023-04-04T08:16:17.299Z,9.745620
2023-04-04T08:17:17.267Z,9.745679
2023-04-04T08:18:17.263Z,9.745707
2023-04-04T08:19:17.279Z,9.745677
2023-04-04T08:20:17.246Z,9.745693
2023-04-04T08:21:17.235Z,9.745654
2023-04-04T08:22:17.236Z,9.745682
2023-04-04T08:23:17.227Z,9.745683
2023-04-04T08:24:17.235Z,9.745734
2023-04-04T08:25:17.210Z,9.745736
2023-04-04T08:26:17.199Z,9.745763
2023-04-04T08:27:17.184Z,9.745713
2023-04-04T08:28:17.194Z,9.745640
2023-04-04T08:29:17.195Z,9.745664
2023-04-04T08:30:17.168Z,9.745629
2023-04-04T08:31:17.199Z,9.745661
2023-04-04T08:32:17.142Z,9.745532
2023-04-04T08:33:17.190Z,9.745550
2023-04-04T08:34:17.152Z,9.745662
2023-04-04T08:35:17.128Z,9.745694
2023-04-04T08:36:17.121Z,9.745700
2023-04-04T08:37:17.141Z,9.745645
2023-04-04T08:38:17.104Z,9.745547
2023-04-04T08:39:17.115Z,9.745674
2023-04-04T08:40:17.116Z,9.745564
2023-04-04T08:41:17.086Z,9.745564
2023-04-04T08:42:17.098Z,9.745606
2023-04-04T08:43:17.062Z,9.745571
2023-04-04T08:44:17.081Z,9.745524
2023-04-04T08:45:17.056Z,9.745637
2023-04-04T08:46:17.063Z,9.745708
2023-04-04T08:47:17.034Z,9.745727
2023-04-04T08:48:17.020Z,9.745752
2023-04-04T08:49:17.054Z,9.745742
2023-04-04T08:50:17.042Z,9.745674
2023-04-04T08:51:17.003Z,9.745843
2023-04-04T08:52:16.992Z,9.745568
2023-04-04T08:53:16.984Z,9.745531
2023-04-04T08:54:17.008Z,9.745477
2023-04-04T08:55:16.976Z,9.745593
2023-04-04T08:56:16.963Z,9.745655
2023-04-04T08:57:16.955Z,9.745667
2023-04-04T08:58:16.947Z,9.745634
2023-04-04T08:59:17.028Z,9.745675
2023-04-04T09:00:17.596Z,9.745749
2023-04-04T09:01:16.974Z,9.745591
2023-04-04T09:02:17.232Z,9.745635
2023-04-04T09:03:16.988Z,9.745632
2023-04-04T09:04:16.909Z,9.745647
2023-04-04T09:05:16.921Z,9.745533
2023-04-04T09:06:16.889Z,9.745297
2023-04-04T09:07:16.895Z,9.745751
2023-04-04T09:08:16.875Z,9.745946
2023-04-04T09:09:16.872Z,9.745723
2023-04-04T09:10:16.882Z,9.745513
2023-04-04T09:11:16.851Z,9.745533
2023-04-04T09:12:16.842Z,9.745790
2023-04-04T09:13:16.993Z,9.745532
2023-04-04T09:14:16.826Z,9.745405
2023-04-04T09:15:16.866Z,9.745627
2023-04-04T09:16:16.837Z,9.745636
2023-04-04T09:17:16.808Z,9.745616
2023-04-04T09:18:16.792Z,9.745781
2023-04-04T09:19:16.785Z,9.745539
2023-04-04T09:20:16.811Z,9.745641
2023-04-04T09:21:16.767Z,9.745698
2023-04-04T09:22:16.770Z,9.745741
2023-04-04T09:23:16.748Z,9.745646
2023-04-04T09:24:16.742Z,9.745230
2023-04-04T09:25:16.858Z,9.745889
2023-04-04T09:26:16.728Z,9.745649
2023-04-04T09:27:16.723Z,9.745423
2023-04-04T09:28:16.710Z,9.745390
2023-04-04T09:29:16.700Z,9.745417
2023-04-04T09:30:16.719Z,9.745440
2023-04-04T09:31:16.688Z,9.745325
2023-04-04T09:32:16.729Z,9.745338
2023-04-04T09:33:16.680Z,9.745349
2023-04-04T09:34:16.674Z,9.745417
2023-04-04T09:35:16.677Z,9.745150
2023-04-04T09:36:18.293Z,9.745035
2023-04-04T09:37:17.713Z,9.745287
2023-04-04T09:38:16.656Z,9.745649
2023-04-04T09:39:16.661Z,9.745788
2023-04-04T09:40:16.685Z,9.745605
2023-04-04T09:41:16.674Z,9.745380
2023-04-04T09:42:16.784Z,9.745314
2023-04-04T09:43:16.596Z,9.745249
2023-04-04T09:44:16.594Z,9.745344
2023-04-04T09:45:22.275Z,9.745291
2023-04-04T09:46:18.585Z,9.745205
2023-04-04T09:47:27.766Z,9.745937
2023-04-04T09:48:17.555Z,9.745908
2023-04-04T09:49:16.554Z,9.745856
2023-04-04T09:50:16.569Z,9.745248
2023-04-04T09:51:16.543Z,9.745466
2023-04-04T09:52:16.526Z,9.746018
2023-04-04T09:53:16.514Z,9.745896
2023-04-04T09:54:28.869Z,9.745882
2023-04-04T09:55:18.532Z,9.745604
2023-04-04T09:56:16.499Z,9.745591
2023-04-04T09:57:16.491Z,9.745947
2023-04-04T09:58:16.489Z,9.746348
2023-04-04T09:59:16.541Z,9.745400
2023-04-04T10:00:16.496Z,9.745378
2023-04-04T10:01:16.486Z,9.745243
2023-04-04T10:02:16.454Z,9.745505
2023-04-04T10:03:16.444Z,9.745544
2023-04-04T10:04:16.454Z,9.744982
2023-04-04T10:05:16.447Z,9.744674
2023-04-04T10:06:16.415Z,9.745136
2023-04-04T10:07:16.409Z,9.745280
2023-04-04T10:08:16.398Z,9.745436
2023-04-04T10:09:16.390Z,9.746081
2023-04-04T10:10:16.409Z,9.745454
2023-04-04T10:11:16.385Z,9.745116
2023-04-04T10:12:16.374Z,9.745111
2023-04-04T10:13:16.357Z,9.745058
2023-04-04T10:14:16.349Z,9.745312
2023-04-04T10:15:16.368Z,9.745212
2023-04-04T10:16:16.378Z,9.745312
2023-04-04T10:17:16.329Z,9.745512
2023-04-04T10:18:16.345Z,9.745631
2023-04-04T10:19:16.329Z,9.745914
2023-04-04T10:20:16.341Z,9.746033
2023-04-04T10:21:16.301Z,9.745912
2023-04-04T10:22:16.297Z,9.745690
2023-04-04T10:23:16.287Z,9.745552
2023-04-04T10:24:16.305Z,9.745779
2023-04-04T10:25:16.307Z,9.745677
2023-04-04T10:26:16.284Z,9.745494
2023-04-04T10:27:16.265Z,9.745322
2023-04-04T10:28:16.252Z,9.744910
2023-04-04T10:29:16.240Z,9.745179
2023-04-04T10:30:16.242Z,9.745466
2023-04-04T10:31:16.319Z,9.745839
2023-04-04T10:32:16.212Z,9.745405
2023-04-04T10:33:16.244Z,9.745592
2023-04-04T10:34:16.218Z,9.745424
2023-04-04T10:35:16.451Z,9.745507
2023-04-04T10:36:16.263Z,9.745485
2023-04-04T10:37:16.174Z,9.745588
2023-04-04T10:38:16.184Z,9.745365
2023-04-04T10:39:16.162Z,9.745459
2023-04-04T10:40:16.152Z,9.745549
2023-04-04T10:41:16.169Z,9.745540
2023-04-04T10:42:16.147Z,9.745443
2023-04-04T10:43:16.139Z,9.745529
2023-04-04T10:44:16.136Z,9.745653
2023-04-04T10:45:20.451Z,9.745538
2023-04-04T10:46:17.205Z,9.745550
2023-04-04T10:47:16.112Z,9.745711
2023-04-04T10:48:16.112Z,9.745386
2023-04-04T10:49:16.084Z,9.745708
2023-04-04T10:50:16.081Z,9.745599
2023-04-04T10:51:16.094Z,9.745556
2023-04-04T10:52:16.060Z,9.745500
2023-04-04T10:53:16.045Z,9.745308
2023-04-04T10:54:16.043Z,9.745510
2023-04-04T10:55:16.029Z,9.745683
2023-04-04T10:56:16.057Z,9.745616
2023-04-04T10:57:16.015Z,9.745641
2023-04-04T10:58:16.009Z,9.745351
2023-04-04T10:59:16.081Z,9.745404
2023-04-04T11:00:16.003Z,9.745666
2023-04-04T11:01:16.049Z,9.745613
2023-04-04T11:02:15.998Z,9.745625
2023-04-04T11:03:15.976Z,9.745436
2023-04-04T11:04:17.894Z,9.745438
2023-04-04T11:05:15.957Z,9.745457
2023-04-04T11:06:15.993Z,9.745537
2023-04-04T11:07:15.948Z,9.745635
2023-04-04T11:08:15.973Z,9.745459
2023-04-04T11:09:15.933Z,9.745531
2023-04-04T11:10:15.930Z,9.745709
2023-04-04T11:11:22.602Z,9.745798
2023-04-04T11:12:17.934Z,9.745811
2023-04-04T11:13:15.911Z,9.745688
2023-04-04T11:14:15.885Z,9.745730
2023-04-04T11:15:15.885Z,9.745805
2023-04-04T11:16:15.999Z,9.745798
2023-04-04T11:17:15.872Z,9.745771
2023-04-04T11:18:31.620Z,9.745718
2023-04-04T11:19:17.854Z,9.745709
2023-04-04T11:20:15.849Z,9.745833
2023-04-04T11:21:15.863Z,9.745817
2023-04-04T11:22:15.820Z,9.745623
2023-04-04T11:23:15.811Z,9.745607
2023-04-04T11:24:15.834Z,9.745527
2023-04-04T11:25:15.800Z,9.745562
2023-04-04T11:26:15.814Z,9.745609
2023-04-04T11:27:15.792Z,9.745701
2023-04-04T11:28:15.788Z,9.745641
2023-04-04T11:29:15.768Z,9.745745
2023-04-04T11:30:15.772Z,9.745866
2023-04-04T11:31:15.781Z,9.745857
2023-04-04T11:32:15.805Z,9.745601
2023-04-04T11:33:15.745Z,9.745588
2023-04-04T11:34:15.744Z,9.745758
2023-04-04T11:35:15.726Z,9.745703
2023-04-04T11:36:15.795Z,9.745516
2023-04-04T11:37:15.701Z,9.745745
2023-04-04T11:38:15.696Z,9.745435
2023-04-04T11:39:15.829Z,9.745521
2023-04-04T11:40:15.677Z,9.745601
2023-04-04T11:41:15.703Z,9.745674
2023-04-04T11:42:15.665Z,9.745847
2023-04-04T11:43:15.657Z,9.745615
2023-04-04T11:44:15.646Z,9.745584